De Tour Village, MI (49725)

9:52 AM EST on December 11, 2016 (GMT -0500)
Drummond Island | | Change Station
Active Advisory: Winter Weather Advisory

Elev 669 ft 46.01 °N, 83.74 °W | Updated 37 minutes ago

Overcast
Overcast
19 °F
Feels Like 19 °F
N
0
Wind Variable Wind from North

Today
High -- | Low -- °F
--% Chance of Precip.
Yesterday
High -- | Low -- °F
Precip. -- in
Pressure 30.20 in
Visibility 10.0 miles
Clouds Overcast 2600 ft
Dew Point 16 °F
Humidity 90%
Rainfall 0.00 in
Snow Depth Not available.
8:07 AM 4:50 PM
Waxing Gibbous, 92% visible
METAR KDRM 111415Z AUTO 00000KT 10SM OVC026 M07/M09 A3020 RMK AO2 T10731087
Pressure 30.20 in
Visibility 10.0 miles
Clouds Overcast 2600 ft
Dew Point 16 °F
Humidity 90%
Rainfall 0.00 in
Snow Depth Not available.
8:07 AM 4:50 PM
Waxing Gibbous, 92% visible
METAR KDRM 111415Z AUTO 00000KT 10SM OVC026 M07/M09 A3020 RMK AO2 T10731087

10-Day Weather Forecast

Almanac

Astronomy

Dec. 11, 2016 Rise Set
Actual Time
Civil Twilight
Nautical Twilight
Astronomical Twilight
Moon
Length of Visible Light
Length of Day
Tomorrow will be .
, % of the Moon is Illuminated

Today's Extremes

State Highs State Lows

Community

WunderPhotos

Upload Photos

1,956,719 photos uploaded!

WunderBlog® & News

Nearby

Air Quality

  Air Quality AQ Index Pollutant
Not available.

Snow Depth

Station Depth Elevation

Earthquake Activity

City Distance Mag. Time & Date
Minimum magnitude displayed is 2.5.

Coastal Water Temperatures

Place Temperature

Stations

Nearby Weather Stations

Station Location Temp. Windchill Dew Point Humidity Wind Precip. Elev Updated Type
                   

Watches & Warnings

Winter Weather Advisory
Issued: 3:32 AM EST Dec. 11, 2016 – National Weather Service

... Winter Weather Advisory remains in effect from 7 am this
morning to 7 am EST Monday...

A Winter Weather Advisory remains in effect from 7 am this
morning to 7 am EST Monday.

* Snow will continue to expand across northern Michigan today.

* The heaviest snowfall rates will occur between 1 PM and 7 PM
this afternoon.

* Total snow accumulations of 2 to 7 inches are expected. The
highest amounts will be near Saginaw Bay.

* Look for reduced visibilities at times. Plan on slippery and
snow-covered roads.

Precautionary/preparedness actions...

A Winter Weather Advisory for snow means periods of snow will
cause primarily travel difficulties. Be prepared for snow covered
roads and limited visibilities... and use caution while driving.
For the latest Road conditions... go to the mdot website at
Michigan.Gov.


Jz